sensor_id;sensor_type;location;lat;lon;timestamp;pressure;altitude;pressure_sealevel;temperature;humidity
82474;BME280;72350;53.232;6.556;2024-02-28T00:00:46;101835.47;;;4.10;87.53
82474;BME280;72350;53.232;6.556;2024-02-28T00:03:14;101841.03;;;4.09;89.16
82474;BME280;72350;53.232;6.556;2024-02-28T00:05:42;101841.06;;;4.20;89.10
82474;BME280;72350;53.232;6.556;2024-02-28T00:08:11;101839.09;;;4.22;89.25
82474;BME280;72350;53.232;6.556;2024-02-28T00:10:40;101838.66;;;4.28;88.87
82474;BME280;72350;53.232;6.556;2024-02-28T00:13:08;101825.06;;;4.40;88.46
82474;BME280;72350;53.232;6.556;2024-02-28T00:15:36;101822.44;;;4.38;88.32
82474;BME280;72350;53.232;6.556;2024-02-28T00:18:05;101818.53;;;4.42;87.78
82474;BME280;72350;53.232;6.556;2024-02-28T00:20:33;101822.94;;;4.32;87.85
82474;BME280;72350;53.232;6.556;2024-02-28T00:23:01;101828.25;;;4.09;89.14
82474;BME280;72350;53.232;6.556;2024-02-28T00:25:28;101827.34;;;3.98;89.48
82474;BME280;72350;53.232;6.556;2024-02-28T00:27:57;101834.22;;;3.90;91.02
82474;BME280;72350;53.232;6.556;2024-02-28T00:30:25;101844.13;;;3.91;89.80
82474;BME280;72350;53.232;6.556;2024-02-28T00:32:54;101838.91;;;3.88;90.71
82474;BME280;72350;53.232;6.556;2024-02-28T00:35:23;101828.53;;;3.93;90.83
82474;BME280;72350;53.232;6.556;2024-02-28T00:37:50;101825.69;;;3.95;90.13
82474;BME280;72350;53.232;6.556;2024-02-28T00:40:18;101823.88;;;3.83;90.18
82474;BME280;72350;53.232;6.556;2024-02-28T00:42:46;101821.22;;;3.57;91.64
82474;BME280;72350;53.232;6.556;2024-02-28T00:45:16;101823.03;;;3.69;91.92
82474;BME280;72350;53.232;6.556;2024-02-28T00:47:44;101823.06;;;3.57;91.85
82474;BME280;72350;53.232;6.556;2024-02-28T00:50:11;101815.34;;;3.63;91.87
82474;BME280;72350;53.232;6.556;2024-02-28T00:52:40;101823.94;;;3.57;91.89
82474;BME280;72350;53.232;6.556;2024-02-28T00:55:08;101825.97;;;3.79;91.15
82474;BME280;72350;53.232;6.556;2024-02-28T00:57:35;101820.28;;;3.82;91.05
82474;BME280;72350;53.232;6.556;2024-02-28T01:00:04;101817.91;;;3.78;91.06
82474;BME280;72350;53.232;6.556;2024-02-28T01:02:34;101817.78;;;3.79;91.07
82474;BME280;72350;53.232;6.556;2024-02-28T01:05:01;101820.84;;;3.75;90.60
82474;BME280;72350;53.232;6.556;2024-02-28T01:07:29;101826.13;;;3.89;90.49
82474;BME280;72350;53.232;6.556;2024-02-28T01:09:57;101825.75;;;3.82;90.47
82474;BME280;72350;53.232;6.556;2024-02-28T01:12:25;101831.25;;;3.93;90.90
82474;BME280;72350;53.232;6.556;2024-02-28T01:14:53;101833.94;;;4.06;90.58
82474;BME280;72350;53.232;6.556;2024-02-28T01:17:21;101838.75;;;4.03;89.81
82474;BME280;72350;53.232;6.556;2024-02-28T01:19:50;101828.75;;;3.90;89.78
82474;BME280;72350;53.232;6.556;2024-02-28T01:22:18;101821.59;;;3.89;90.35
82474;BME280;72350;53.232;6.556;2024-02-28T01:24:46;101824.06;;;3.92;90.55
82474;BME280;72350;53.232;6.556;2024-02-28T01:27:14;101820.06;;;3.85;90.24
82474;BME280;72350;53.232;6.556;2024-02-28T01:29:42;101820.16;;;3.84;90.92
82474;BME280;72350;53.232;6.556;2024-02-28T01:32:09;101825.03;;;3.91;90.59
82474;BME280;72350;53.232;6.556;2024-02-28T01:34:37;101818.44;;;3.83;90.27
82474;BME280;72350;53.232;6.556;2024-02-28T01:37:06;101823.03;;;3.69;91.24
82474;BME280;72350;53.232;6.556;2024-02-28T01:39:34;101802.88;;;3.72;91.33
82474;BME280;72350;53.232;6.556;2024-02-28T01:42:02;101801.44;;;3.79;91.40
82474;BME280;72350;53.232;6.556;2024-02-28T01:44:30;101801.69;;;4.00;91.23
82474;BME280;72350;53.232;6.556;2024-02-28T01:46:58;101809.34;;;3.95;90.81
82474;BME280;72350;53.232;6.556;2024-02-28T01:49:26;101814.06;;;3.80;89.77
82474;BME280;72350;53.232;6.556;2024-02-28T01:51:54;101803.59;;;3.87;90.90
82474;BME280;72350;53.232;6.556;2024-02-28T01:54:25;101808.63;;;3.80;90.81
82474;BME280;72350;53.232;6.556;2024-02-28T01:56:56;101809.13;;;3.98;91.35
82474;BME280;72350;53.232;6.556;2024-02-28T01:59:24;101808.81;;;3.90;90.48
82474;BME280;72350;53.232;6.556;2024-02-28T02:01:54;101812.19;;;3.93;90.28
82474;BME280;72350;53.232;6.556;2024-02-28T02:04:22;101806.38;;;3.98;90.58
82474;BME280;72350;53.232;6.556;2024-02-28T02:06:50;101815.44;;;3.99;90.86
82474;BME280;72350;53.232;6.556;2024-02-28T02:09:20;101805.41;;;3.99;90.60
82474;BME280;72350;53.232;6.556;2024-02-28T02:11:49;101799.03;;;3.87;90.61
82474;BME280;72350;53.232;6.556;2024-02-28T02:14:17;101797.31;;;3.74;90.57
82474;BME280;72350;53.232;6.556;2024-02-28T02:16:45;101795.56;;;3.72;91.45
82474;BME280;72350;53.232;6.556;2024-02-28T02:19:13;101796.56;;;3.71;92.08
82474;BME280;72350;53.232;6.556;2024-02-28T02:21:49;101788.00;;;3.89;91.87
82474;BME280;72350;53.232;6.556;2024-02-28T02:24:19;101789.84;;;3.88;91.75
82474;BME280;72350;53.232;6.556;2024-02-28T02:26:47;101795.97;;;3.92;91.42
82474;BME280;72350;53.232;6.556;2024-02-28T02:29:18;101790.41;;;3.81;91.16
82474;BME280;72350;53.232;6.556;2024-02-28T02:31:45;101791.13;;;3.71;91.41
82474;BME280;72350;53.232;6.556;2024-02-28T02:34:13;101796.00;;;3.79;91.75
82474;BME280;72350;53.232;6.556;2024-02-28T02:36:41;101794.06;;;3.68;91.82
82474;BME280;72350;53.232;6.556;2024-02-28T02:39:09;101786.63;;;3.70;91.39
82474;BME280;72350;53.232;6.556;2024-02-28T02:41:38;101783.91;;;3.70;92.03
82474;BME280;72350;53.232;6.556;2024-02-28T02:44:07;101790.19;;;3.84;92.76
82474;BME280;72350;53.232;6.556;2024-02-28T02:46:35;101792.81;;;3.85;92.44
82474;BME280;72350;53.232;6.556;2024-02-28T02:49:02;101788.13;;;3.87;92.57
82474;BME280;72350;53.232;6.556;2024-02-28T02:51:30;101791.94;;;3.85;92.27
82474;BME280;72350;53.232;6.556;2024-02-28T02:53:58;101792.75;;;3.98;92.53
82474;BME280;72350;53.232;6.556;2024-02-28T02:56:26;101807.06;;;3.89;91.81
82474;BME280;72350;53.232;6.556;2024-02-28T02:58:55;101801.91;;;3.60;92.37
82474;BME280;72350;53.232;6.556;2024-02-28T03:01:23;101791.28;;;3.81;93.02
82474;BME280;72350;53.232;6.556;2024-02-28T03:03:50;101788.56;;;3.81;93.26
82474;BME280;72350;53.232;6.556;2024-02-28T03:06:19;101779.81;;;3.89;92.63
82474;BME280;72350;53.232;6.556;2024-02-28T03:08:47;101789.66;;;3.79;91.25
82474;BME280;72350;53.232;6.556;2024-02-28T03:11:15;101778.56;;;3.82;92.38
82474;BME280;72350;53.232;6.556;2024-02-28T03:13:43;101778.63;;;3.93;92.61
82474;BME280;72350;53.232;6.556;2024-02-28T03:16:12;101783.00;;;3.83;91.25
82474;BME280;72350;53.232;6.556;2024-02-28T03:18:40;101791.50;;;3.78;91.71
82474;BME280;72350;53.232;6.556;2024-02-28T03:21:07;101784.09;;;3.80;92.12
82474;BME280;72350;53.232;6.556;2024-02-28T03:23:35;101786.34;;;3.86;91.52
82474;BME280;72350;53.232;6.556;2024-02-28T03:26:03;101789.63;;;3.91;91.78
82474;BME280;72350;53.232;6.556;2024-02-28T03:28:31;101788.16;;;3.75;90.95
82474;BME280;72350;53.232;6.556;2024-02-28T03:30:59;101783.81;;;3.72;91.56
82474;BME280;72350;53.232;6.556;2024-02-28T03:33:28;101782.94;;;3.71;92.22
82474;BME280;72350;53.232;6.556;2024-02-28T03:35:58;101784.34;;;3.77;92.69
82474;BME280;72350;53.232;6.556;2024-02-28T03:38:26;101788.78;;;3.78;92.25
82474;BME280;72350;53.232;6.556;2024-02-28T03:40:54;101779.09;;;3.87;91.37
82474;BME280;72350;53.232;6.556;2024-02-28T03:43:22;101791.28;;;3.81;91.22
82474;BME280;72350;53.232;6.556;2024-02-28T03:45:50;101776.34;;;3.87;91.66
82474;BME280;72350;53.232;6.556;2024-02-28T03:48:18;101785.16;;;3.90;91.64
82474;BME280;72350;53.232;6.556;2024-02-28T03:50:47;101773.41;;;3.90;90.80
82474;BME280;72350;53.232;6.556;2024-02-28T03:53:15;101764.13;;;3.92;91.37
82474;BME280;72350;53.232;6.556;2024-02-28T03:55:43;101771.28;;;3.93;91.33
82474;BME280;72350;53.232;6.556;2024-02-28T03:58:11;101772.06;;;3.96;91.29
82474;BME280;72350;53.232;6.556;2024-02-28T04:00:39;101771.88;;;3.86;91.15
82474;BME280;72350;53.232;6.556;2024-02-28T04:03:07;101782.44;;;3.90;89.92
82474;BME280;72350;53.232;6.556;2024-02-28T04:05:35;101778.66;;;3.80;91.11
82474;BME280;72350;53.232;6.556;2024-02-28T04:08:04;101783.78;;;3.85;91.81
82474;BME280;72350;53.232;6.556;2024-02-28T04:10:32;101781.34;;;3.93;91.69
82474;BME280;72350;53.232;6.556;2024-02-28T04:13:00;101782.84;;;3.97;90.92
82474;BME280;72350;53.232;6.556;2024-02-28T04:15:30;101782.00;;;3.84;90.98
82474;BME280;72350;53.232;6.556;2024-02-28T04:17:58;101789.97;;;3.87;90.70
82474;BME280;72350;53.232;6.556;2024-02-28T04:20:26;101787.69;;;3.81;90.99
82474;BME280;72350;53.232;6.556;2024-02-28T04:22:54;101791.09;;;3.84;91.52
82474;BME280;72350;53.232;6.556;2024-02-28T04:25:23;101787.78;;;3.92;91.81
82474;BME280;72350;53.232;6.556;2024-02-28T04:27:51;101785.25;;;3.89;91.58
82474;BME280;72350;53.232;6.556;2024-02-28T04:30:19;101784.53;;;3.87;91.48
82474;BME280;72350;53.232;6.556;2024-02-28T04:32:47;101800.41;;;3.93;91.95
82474;BME280;72350;53.232;6.556;2024-02-28T04:35:14;101799.75;;;4.02;91.69
82474;BME280;72350;53.232;6.556;2024-02-28T04:37:45;101807.81;;;3.91;90.95
82474;BME280;72350;53.232;6.556;2024-02-28T04:40:13;101803.78;;;3.97;91.29
82474;BME280;72350;53.232;6.556;2024-02-28T04:42:43;101810.31;;;3.94;91.58
82474;BME280;72350;53.232;6.556;2024-02-28T04:45:11;101807.91;;;4.02;92.56
82474;BME280;72350;53.232;6.556;2024-02-28T04:47:39;101802.59;;;3.88;91.50
82474;BME280;72350;53.232;6.556;2024-02-28T04:50:11;101804.44;;;4.00;92.42
82474;BME280;72350;53.232;6.556;2024-02-28T04:52:39;101795.78;;;4.06;92.00
82474;BME280;72350;53.232;6.556;2024-02-28T04:55:07;101805.09;;;4.15;92.34
82474;BME280;72350;53.232;6.556;2024-02-28T04:57:35;101810.47;;;4.16;91.15
82474;BME280;72350;53.232;6.556;2024-02-28T05:00:06;101796.34;;;4.23;91.34
82474;BME280;72350;53.232;6.556;2024-02-28T05:02:34;101805.88;;;4.17;90.45
82474;BME280;72350;53.232;6.556;2024-02-28T05:05:03;101805.94;;;4.28;91.10
82474;BME280;72350;53.232;6.556;2024-02-28T05:07:31;101809.41;;;4.30;90.78
82474;BME280;72350;53.232;6.556;2024-02-28T05:09:58;101806.56;;;4.32;91.25
82474;BME280;72350;53.232;6.556;2024-02-28T05:12:26;101809.56;;;4.40;91.08
82474;BME280;72350;53.232;6.556;2024-02-28T05:14:54;101802.41;;;4.39;91.03
82474;BME280;72350;53.232;6.556;2024-02-28T05:17:23;101803.28;;;4.51;91.04
82474;BME280;72350;53.232;6.556;2024-02-28T05:19:51;101795.97;;;4.51;90.77
82474;BME280;72350;53.232;6.556;2024-02-28T05:22:19;101791.28;;;4.53;90.83
82474;BME280;72350;53.232;6.556;2024-02-28T05:24:47;101796.69;;;4.42;90.02
82474;BME280;72350;53.232;6.556;2024-02-28T05:27:15;101800.28;;;4.43;90.32
82474;BME280;72350;53.232;6.556;2024-02-28T05:29:43;101797.53;;;4.31;90.25
82474;BME280;72350;53.232;6.556;2024-02-28T05:32:11;101796.53;;;4.32;90.86
82474;BME280;72350;53.232;6.556;2024-02-28T05:34:41;101801.88;;;4.34;90.84
82474;BME280;72350;53.232;6.556;2024-02-28T05:37:09;101800.50;;;4.28;91.17
82474;BME280;72350;53.232;6.556;2024-02-28T05:39:38;101800.13;;;4.33;90.33
82474;BME280;72350;53.232;6.556;2024-02-28T05:42:06;101800.25;;;4.31;91.81
82474;BME280;72350;53.232;6.556;2024-02-28T05:44:34;101809.63;;;4.27;91.82
82474;BME280;72350;53.232;6.556;2024-02-28T05:47:02;101807.97;;;4.37;91.42
82474;BME280;72350;53.232;6.556;2024-02-28T05:49:30;101798.66;;;4.40;91.68
82474;BME280;72350;53.232;6.556;2024-02-28T05:51:59;101810.06;;;4.34;91.08
82474;BME280;72350;53.232;6.556;2024-02-28T05:54:27;101811.69;;;4.36;92.31
82474;BME280;72350;53.232;6.556;2024-02-28T05:56:56;101812.72;;;4.47;92.32
82474;BME280;72350;53.232;6.556;2024-02-28T05:59:24;101809.41;;;4.54;92.22
82474;BME280;72350;53.232;6.556;2024-02-28T06:01:52;101813.97;;;4.54;92.01
82474;BME280;72350;53.232;6.556;2024-02-28T06:04:21;101801.66;;;4.48;91.67
82474;BME280;72350;53.232;6.556;2024-02-28T06:06:49;101808.69;;;4.64;91.15
82474;BME280;72350;53.232;6.556;2024-02-28T06:09:19;101807.19;;;4.59;92.60
82474;BME280;72350;53.232;6.556;2024-02-28T06:11:47;101807.31;;;4.58;91.59
82474;BME280;72350;53.232;6.556;2024-02-28T06:14:15;101807.13;;;4.48;91.43
82474;BME280;72350;53.232;6.556;2024-02-28T06:16:46;101801.31;;;4.53;92.15
82474;BME280;72350;53.232;6.556;2024-02-28T06:19:14;101814.44;;;4.48;91.12
82474;BME280;72350;53.232;6.556;2024-02-28T06:21:42;101814.28;;;4.62;91.76
82474;BME280;72350;53.232;6.556;2024-02-28T06:24:10;101815.84;;;4.53;90.97
82474;BME280;72350;53.232;6.556;2024-02-28T06:26:40;101818.97;;;4.60;92.51
82474;BME280;72350;53.232;6.556;2024-02-28T06:29:09;101820.34;;;4.66;92.12
82474;BME280;72350;53.232;6.556;2024-02-28T06:31:38;101829.38;;;4.55;90.43
82474;BME280;72350;53.232;6.556;2024-02-28T06:34:06;101821.66;;;4.49;90.40
82474;BME280;72350;53.232;6.556;2024-02-28T06:36:36;101828.72;;;4.51;91.74
82474;BME280;72350;53.232;6.556;2024-02-28T06:39:04;101830.84;;;4.59;92.38
82474;BME280;72350;53.232;6.556;2024-02-28T06:41:32;101838.44;;;4.67;92.34
82474;BME280;72350;53.232;6.556;2024-02-28T06:44:01;101842.38;;;4.87;91.72
82474;BME280;72350;53.232;6.556;2024-02-28T06:46:29;101843.22;;;4.87;91.78
82474;BME280;72350;53.232;6.556;2024-02-28T06:48:57;101849.19;;;4.92;91.33
82474;BME280;72350;53.232;6.556;2024-02-28T06:51:26;101855.25;;;4.85;90.23
82474;BME280;72350;53.232;6.556;2024-02-28T06:53:53;101856.63;;;4.90;90.45
82474;BME280;72350;53.232;6.556;2024-02-28T06:56:21;101862.59;;;4.84;91.34
82474;BME280;72350;53.232;6.556;2024-02-28T06:58:49;101865.22;;;4.97;91.53
82474;BME280;72350;53.232;6.556;2024-02-28T07:01:19;101866.91;;;4.75;90.76
82474;BME280;72350;53.232;6.556;2024-02-28T07:03:47;101870.78;;;4.84;92.52
82474;BME280;72350;53.232;6.556;2024-02-28T07:06:15;101868.31;;;4.92;91.99
82474;BME280;72350;53.232;6.556;2024-02-28T07:08:43;101877.53;;;5.02;91.72
82474;BME280;72350;53.232;6.556;2024-02-28T07:11:13;101882.13;;;5.02;91.15
82474;BME280;72350;53.232;6.556;2024-02-28T07:13:41;101873.16;;;4.89;91.64
82474;BME280;72350;53.232;6.556;2024-02-28T07:16:09;101878.00;;;4.96;91.92
82474;BME280;72350;53.232;6.556;2024-02-28T07:18:39;101871.28;;;4.89;92.49
82474;BME280;72350;53.232;6.556;2024-02-28T07:21:07;101877.69;;;5.12;92.19
82474;BME280;72350;53.232;6.556;2024-02-28T07:23:34;101882.53;;;5.09;91.19
82474;BME280;72350;53.232;6.556;2024-02-28T07:26:03;101886.91;;;5.22;91.40
82474;BME280;72350;53.232;6.556;2024-02-28T07:28:44;101884.53;;;5.29;90.99
82474;BME280;72350;53.232;6.556;2024-02-28T07:31:15;101887.06;;;5.32;90.84
82474;BME280;72350;53.232;6.556;2024-02-28T07:33:45;101889.66;;;5.34;91.12
82474;BME280;72350;53.232;6.556;2024-02-28T07:36:14;101894.75;;;5.50;90.92
82474;BME280;72350;53.232;6.556;2024-02-28T07:38:42;101892.78;;;5.40;89.73
82474;BME280;72350;53.232;6.556;2024-02-28T07:41:10;101896.38;;;5.41;89.83
82474;BME280;72350;53.232;6.556;2024-02-28T07:43:41;101903.69;;;5.40;89.94
82474;BME280;72350;53.232;6.556;2024-02-28T07:46:10;101909.66;;;5.45;90.04
82474;BME280;72350;53.232;6.556;2024-02-28T07:48:39;101907.44;;;5.51;89.46
82474;BME280;72350;53.232;6.556;2024-02-28T07:51:08;101905.81;;;5.59;90.05
82474;BME280;72350;53.232;6.556;2024-02-28T07:53:38;101904.34;;;5.55;88.79
82474;BME280;72350;53.232;6.556;2024-02-28T07:56:06;101909.47;;;5.71;89.47
82474;BME280;72350;53.232;6.556;2024-02-28T07:58:34;101904.72;;;5.73;89.70
82474;BME280;72350;53.232;6.556;2024-02-28T08:01:02;101912.53;;;5.78;88.70
82474;BME280;72350;53.232;6.556;2024-02-28T08:03:31;101917.25;;;5.76;88.59
82474;BME280;72350;53.232;6.556;2024-02-28T08:05:59;101916.16;;;5.89;88.96
82474;BME280;72350;53.232;6.556;2024-02-28T08:08:28;101922.25;;;5.93;87.90
82474;BME280;72350;53.232;6.556;2024-02-28T08:10:56;101923.38;;;5.90;88.05
82474;BME280;72350;53.232;6.556;2024-02-28T08:13:24;101927.97;;;5.90;88.18
82474;BME280;72350;53.232;6.556;2024-02-28T08:15:54;101926.63;;;5.96;88.32
82474;BME280;72350;53.232;6.556;2024-02-28T08:18:23;101926.13;;;6.02;87.95
82474;BME280;72350;53.232;6.556;2024-02-28T08:20:50;101935.44;;;6.22;87.35
82474;BME280;72350;53.232;6.556;2024-02-28T08:23:19;101934.31;;;6.24;87.65
82474;BME280;72350;53.232;6.556;2024-02-28T08:25:49;101929.59;;;6.26;86.74
82474;BME280;72350;53.232;6.556;2024-02-28T08:28:17;101931.69;;;6.34;86.90
82474;BME280;72350;53.232;6.556;2024-02-28T08:30:45;101939.03;;;6.33;86.92
82474;BME280;72350;53.232;6.556;2024-02-28T08:33:14;101943.88;;;6.41;86.48
82474;BME280;72350;53.232;6.556;2024-02-28T08:35:45;101938.00;;;6.46;86.78
82474;BME280;72350;53.232;6.556;2024-02-28T08:38:13;101941.75;;;6.45;86.14
82474;BME280;72350;53.232;6.556;2024-02-28T08:40:41;101942.00;;;6.42;85.92
82474;BME280;72350;53.232;6.556;2024-02-28T08:43:10;101951.09;;;6.42;86.05
82474;BME280;72350;53.232;6.556;2024-02-28T08:45:38;101946.00;;;6.38;85.81
82474;BME280;72350;53.232;6.556;2024-02-28T08:48:07;101950.81;;;6.45;86.60
82474;BME280;72350;53.232;6.556;2024-02-28T08:50:35;101949.31;;;6.52;86.35
82474;BME280;72350;53.232;6.556;2024-02-28T08:53:03;101950.19;;;6.64;86.32
82474;BME280;72350;53.232;6.556;2024-02-28T08:55:31;101954.28;;;6.70;86.17
82474;BME280;72350;53.232;6.556;2024-02-28T08:57:59;101947.25;;;6.77;85.97
82474;BME280;72350;53.232;6.556;2024-02-28T09:00:29;101947.03;;;6.69;85.61
82474;BME280;72350;53.232;6.556;2024-02-28T09:02:57;101942.91;;;6.74;86.15
82474;BME280;72350;53.232;6.556;2024-02-28T09:05:25;101944.94;;;6.72;85.89
82474;BME280;72350;53.232;6.556;2024-02-28T09:07:53;101947.53;;;6.74;86.58
82474;BME280;72350;53.232;6.556;2024-02-28T09:10:21;101940.91;;;6.76;86.25
82474;BME280;72350;53.232;6.556;2024-02-28T09:12:51;101943.81;;;6.75;85.95
82474;BME280;72350;53.232;6.556;2024-02-28T09:15:20;101943.00;;;6.84;85.42
82474;BME280;72350;53.232;6.556;2024-02-28T09:17:49;101937.06;;;6.79;84.64
82474;BME280;72350;53.232;6.556;2024-02-28T09:20:18;101937.91;;;6.79;85.42
82474;BME280;72350;53.232;6.556;2024-02-28T09:22:46;101940.16;;;6.86;85.06
82474;BME280;72350;53.232;6.556;2024-02-28T09:25:14;101954.44;;;7.00;85.55
82474;BME280;72350;53.232;6.556;2024-02-28T09:27:45;101949.63;;;6.82;85.15
82474;BME280;72350;53.232;6.556;2024-02-28T09:30:14;101964.06;;;6.84;86.21
82474;BME280;72350;53.232;6.556;2024-02-28T09:32:42;101956.97;;;6.81;85.82
82474;BME280;72350;53.232;6.556;2024-02-28T09:35:12;101959.31;;;6.86;86.47
82474;BME280;72350;53.232;6.556;2024-02-28T09:37:40;101962.94;;;6.86;86.84
82474;BME280;72350;53.232;6.556;2024-02-28T09:40:09;101960.06;;;6.88;87.31
82474;BME280;72350;53.232;6.556;2024-02-28T09:42:38;101963.41;;;6.91;86.91
82474;BME280;72350;53.232;6.556;2024-02-28T09:45:08;101972.09;;;6.96;87.07
82474;BME280;72350;53.232;6.556;2024-02-28T09:47:37;101962.00;;;7.08;86.95
82474;BME280;72350;53.232;6.556;2024-02-28T09:50:07;101964.94;;;7.16;86.95
82474;BME280;72350;53.232;6.556;2024-02-28T09:52:37;101954.75;;;7.07;86.05
82474;BME280;72350;53.232;6.556;2024-02-28T09:55:05;101956.91;;;7.04;87.31
82474;BME280;72350;53.232;6.556;2024-02-28T09:57:35;101962.00;;;7.08;87.73
82474;BME280;72350;53.232;6.556;2024-02-28T10:00:05;101953.59;;;6.89;86.35
82474;BME280;72350;53.232;6.556;2024-02-28T10:02:37;101948.19;;;6.98;87.79
82474;BME280;72350;53.232;6.556;2024-02-28T10:05:07;101961.75;;;7.00;88.25
82474;BME280;72350;53.232;6.556;2024-02-28T10:07:37;101964.09;;;7.05;88.44
82474;BME280;72350;53.232;6.556;2024-02-28T10:10:06;101958.50;;;7.06;88.96
82474;BME280;72350;53.232;6.556;2024-02-28T10:12:40;101959.50;;;7.05;87.95
82474;BME280;72350;53.232;6.556;2024-02-28T10:15:09;101969.09;;;6.99;87.80
82474;BME280;72350;53.232;6.556;2024-02-28T10:17:37;101965.88;;;7.06;88.86
82474;BME280;72350;53.232;6.556;2024-02-28T10:20:06;101970.94;;;7.10;88.95
82474;BME280;72350;53.232;6.556;2024-02-28T10:22:37;101976.22;;;7.23;88.35
82474;BME280;72350;53.232;6.556;2024-02-28T10:25:05;101977.84;;;7.26;89.32
82474;BME280;72350;53.232;6.556;2024-02-28T10:27:34;101982.28;;;7.38;89.15
82474;BME280;72350;53.232;6.556;2024-02-28T10:30:04;101982.28;;;7.38;88.47
82474;BME280;72350;53.232;6.556;2024-02-28T10:32:32;101982.00;;;7.41;88.84
82474;BME280;72350;53.232;6.556;2024-02-28T10:35:03;101980.31;;;7.29;88.27
82474;BME280;72350;53.232;6.556;2024-02-28T10:37:40;101993.69;;;7.22;88.35
82474;BME280;72350;53.232;6.556;2024-02-28T10:40:08;102001.91;;;7.22;88.39
82474;BME280;72350;53.232;6.556;2024-02-28T10:42:39;101989.34;;;7.19;88.45
82474;BME280;72350;53.232;6.556;2024-02-28T10:45:09;101987.56;;;7.18;88.90
82474;BME280;72350;53.232;6.556;2024-02-28T10:47:56;101982.25;;;7.17;90.02
82474;BME280;72350;53.232;6.556;2024-02-28T10:50:24;101989.38;;;7.08;89.65
82474;BME280;72350;53.232;6.556;2024-02-28T10:52:54;101981.75;;;7.12;91.27
82474;BME280;72350;53.232;6.556;2024-02-28T10:55:32;101976.06;;;7.04;90.62
82474;BME280;72350;53.232;6.556;2024-02-28T10:58:02;101978.94;;;7.02;90.58
82474;BME280;72350;53.232;6.556;2024-02-28T11:00:31;101979.78;;;7.14;90.85
82474;BME280;72350;53.232;6.556;2024-02-28T11:03:00;101976.13;;;7.13;91.44
82474;BME280;72350;53.232;6.556;2024-02-28T11:05:36;101972.75;;;7.21;90.81
82474;BME280;72350;53.232;6.556;2024-02-28T11:08:08;101968.38;;;7.30;90.98
82474;BME280;72350;53.232;6.556;2024-02-28T11:10:40;101970.56;;;7.36;90.26
82474;BME280;72350;53.232;6.556;2024-02-28T11:13:10;101972.44;;;7.35;90.02
82474;BME280;72350;53.232;6.556;2024-02-28T11:15:38;101968.69;;;7.36;90.26
82474;BME280;72350;53.232;6.556;2024-02-28T11:18:09;101961.41;;;7.47;90.67
82474;BME280;72350;53.232;6.556;2024-02-28T11:20:37;101965.47;;;7.52;90.31
82474;BME280;72350;53.232;6.556;2024-02-28T11:23:07;101964.50;;;7.53;89.56
82474;BME280;72350;53.232;6.556;2024-02-28T11:25:35;101959.34;;;7.60;89.14
82474;BME280;72350;53.232;6.556;2024-02-28T11:28:04;101960.75;;;7.54;88.95
82474;BME280;72350;53.232;6.556;2024-02-28T11:30:33;101958.06;;;7.64;88.94
82474;BME280;72350;53.232;6.556;2024-02-28T11:33:01;101952.78;;;7.72;88.99
82474;BME280;72350;53.232;6.556;2024-02-28T11:35:32;101953.84;;;7.81;88.73
82474;BME280;72350;53.232;6.556;2024-02-28T11:38:07;101947.41;;;7.92;88.61
82474;BME280;72350;53.232;6.556;2024-02-28T11:40:36;101939.09;;;8.03;87.84
82474;BME280;72350;53.232;6.556;2024-02-28T11:43:05;101935.66;;;8.10;87.32
82474;BME280;72350;53.232;6.556;2024-02-28T11:45:39;101939.31;;;8.21;86.95
82474;BME280;72350;53.232;6.556;2024-02-28T11:48:07;101934.84;;;8.29;85.90
82474;BME280;72350;53.232;6.556;2024-02-28T11:50:37;101926.78;;;8.38;85.73
82474;BME280;72350;53.232;6.556;2024-02-28T11:53:06;101928.50;;;8.29;85.06
82474;BME280;72350;53.232;6.556;2024-02-28T11:55:35;101926.63;;;8.29;85.71
82474;BME280;72350;53.232;6.556;2024-02-28T11:58:07;101927.91;;;8.25;85.92
82474;BME280;72350;53.232;6.556;2024-02-28T12:00:46;101936.00;;;8.27;86.30
82474;BME280;72350;53.232;6.556;2024-02-28T12:03:19;101943.66;;;8.23;86.46
82474;BME280;72350;53.232;6.556;2024-02-28T12:05:47;101934.56;;;8.23;85.66
82474;BME280;72350;53.232;6.556;2024-02-28T12:08:17;101934.91;;;8.08;86.45
82474;BME280;72350;53.232;6.556;2024-02-28T12:10:48;101935.78;;;8.09;86.17
82474;BME280;72350;53.232;6.556;2024-02-28T12:13:17;101923.78;;;8.00;87.08
82474;BME280;72350;53.232;6.556;2024-02-28T12:15:45;101924.31;;;7.94;87.28
82474;BME280;72350;53.232;6.556;2024-02-28T12:18:15;101928.22;;;7.92;87.60
82474;BME280;72350;53.232;6.556;2024-02-28T12:20:43;101926.63;;;7.89;88.07
82474;BME280;72350;53.232;6.556;2024-02-28T12:23:12;101920.56;;;7.95;88.39
82474;BME280;72350;53.232;6.556;2024-02-28T12:25:40;101926.91;;;7.96;88.20
82474;BME280;72350;53.232;6.556;2024-02-28T12:28:09;101919.84;;;7.93;87.60
82474;BME280;72350;53.232;6.556;2024-02-28T12:30:40;101917.94;;;7.94;87.63
82474;BME280;72350;53.232;6.556;2024-02-28T12:33:08;101923.78;;;8.00;87.92
82474;BME280;72350;53.232;6.556;2024-02-28T12:35:38;101924.84;;;7.88;88.19
82474;BME280;72350;53.232;6.556;2024-02-28T12:38:06;101923.22;;;7.76;88.04
82474;BME280;72350;53.232;6.556;2024-02-28T12:40:34;101925.97;;;7.76;89.14
82474;BME280;72350;53.232;6.556;2024-02-28T12:43:01;101924.22;;;7.75;88.95
82474;BME280;72350;53.232;6.556;2024-02-28T12:45:31;101919.59;;;7.75;89.20
82474;BME280;72350;53.232;6.556;2024-02-28T12:47:59;101913.44;;;7.83;89.31
82474;BME280;72350;53.232;6.556;2024-02-28T12:50:28;101919.09;;;7.91;88.19
82474;BME280;72350;53.232;6.556;2024-02-28T12:52:56;101914.16;;;7.85;88.03
82474;BME280;72350;53.232;6.556;2024-02-28T12:55:24;101906.78;;;7.76;88.17
82474;BME280;72350;53.232;6.556;2024-02-28T12:57:51;101909.97;;;7.81;88.77
82474;BME280;72350;53.232;6.556;2024-02-28T13:00:20;101909.00;;;7.92;88.99
82474;BME280;72350;53.232;6.556;2024-02-28T13:02:50;101911.19;;;7.98;89.38
82474;BME280;72350;53.232;6.556;2024-02-28T13:05:19;101905.34;;;7.81;89.43
82474;BME280;72350;53.232;6.556;2024-02-28T13:07:47;101905.19;;;7.73;89.16